Time;durP1;ratioP1;P1;durP2;ratioP2;P2;SDS_P1;SDS_P2;PMS_P1;PMS_P2;Temp;Humidity;BMP_temperature;BMP_pressure;BME280_temperature;BME280_humidity;BME280_pressure;Samples;Min_cycle;Max_cycle;Signal;HPM_P1;HPM_P2
2024/02/08 00:00:47;;;;;;;10.20;8.33;;;5.40;1.00;;;;;;4994866;28;20191;-86
2024/02/08 00:03:13;;;;;;;9.27;7.07;;;5.40;1.00;;;;;;4990715;28;20765;-86
2024/02/08 00:05:40;;;;;;;10.60;7.82;;;5.50;1.00;;;;;;4999828;28;20275;-86
2024/02/08 00:08:06;;;;;;;10.02;7.32;;;5.50;1.00;;;;;;4994540;28;20207;-83
2024/02/08 00:10:32;;;;;;;12.50;9.27;;;5.40;1.00;;;;;;4986671;28;20661;-86
2024/02/08 00:12:57;;;;;;;10.27;7.67;;;5.40;1.00;;;;;;4995215;28;20470;-87
2024/02/08 00:15:25;;;;;;;10.20;6.63;;;5.40;1.00;;;;;;4994557;28;20435;-86
2024/02/08 00:17:51;;;;;;;10.30;7.20;;;5.40;1.00;;;;;;4992346;28;20242;-86
2024/02/08 00:20:16;;;;;;;12.52;8.60;;;5.40;1.00;;;;;;4996926;28;20187;-86
2024/02/08 00:22:43;;;;;;;15.10;8.37;;;5.40;1.00;;;;;;5000125;28;20232;-86
2024/02/08 00:25:09;;;;;;;13.38;8.68;;;5.40;1.00;;;;;;4997371;28;20188;-86
2024/02/08 00:27:35;;;;;;;16.05;10.18;;;5.50;1.00;;;;;;4998226;28;20191;-86
2024/02/08 00:30:01;;;;;;;14.90;10.53;;;5.40;1.00;;;;;;4993562;28;20184;-85
2024/02/08 00:32:27;;;;;;;15.23;12.20;;;5.40;1.00;;;;;;4990433;28;20834;-86
2024/02/08 00:34:53;;;;;;;18.58;12.30;;;5.40;1.00;;;;;;4992638;28;20603;-86
2024/02/08 00:37:19;;;;;;;25.30;13.60;;;5.40;1.00;;;;;;4991876;28;20185;-86
2024/02/08 00:39:44;;;;;;;26.70;15.73;;;5.40;1.00;;;;;;4983413;28;20187;-86
2024/02/08 00:42:13;;;;;;;23.70;14.00;;;5.40;1.00;;;;;;4984148;28;20667;-85
2024/02/08 00:44:43;;;;;;;17.77;12.63;;;5.30;1.00;;;;;;4992144;28;20205;-86
2024/02/08 00:47:09;;;;;;;20.00;14.60;;;5.40;1.00;;;;;;4986026;28;20192;-86
2024/02/08 00:49:35;;;;;;;17.88;12.70;;;5.30;1.00;;;;;;4990537;28;20196;-87
2024/02/08 00:52:01;;;;;;;24.77;13.63;;;5.30;1.00;;;;;;4990685;28;20347;-86
2024/02/08 00:54:26;;;;;;;16.70;12.40;;;5.20;1.00;;;;;;4989773;28;20435;-85
2024/02/08 00:56:53;;;;;;;17.63;11.70;;;5.20;1.00;;;;;;4990588;28;20173;-86
2024/02/08 00:59:22;;;;;;;14.25;9.48;;;5.30;1.00;;;;;;4991002;28;20183;-86
2024/02/08 01:01:47;;;;;;;13.50;10.65;;;5.30;1.00;;;;;;4989186;28;20238;-86
2024/02/08 01:04:13;;;;;;;13.57;8.40;;;5.30;1.00;;;;;;4991246;28;20216;-85
2024/02/08 01:06:40;;;;;;;22.70;8.53;;;5.30;1.00;;;;;;4991535;28;20184;-86
2024/02/08 01:09:09;;;;;;;11.70;7.93;;;5.30;1.00;;;;;;4988334;28;20180;-86
2024/02/08 01:11:35;;;;;;;18.17;10.10;;;5.30;1.00;;;;;;4991588;28;20190;-86
2024/02/08 01:14:02;;;;;;;12.40;8.77;;;5.20;1.00;;;;;;4990194;28;20741;-86
2024/02/08 01:16:31;;;;;;;13.70;8.45;;;5.20;1.00;;;;;;4990488;28;20266;-86
2024/02/08 01:18:57;;;;;;;13.45;9.35;;;5.20;1.00;;;;;;4991137;28;20190;-86
2024/02/08 01:21:23;;;;;;;14.88;9.48;;;5.30;1.00;;;;;;4990365;28;20672;-86
2024/02/08 01:23:49;;;;;;;13.10;9.00;;;5.30;1.00;;;;;;4990740;28;20294;-86
2024/02/08 01:26:15;;;;;;;19.00;11.27;;;5.40;1.00;;;;;;4991035;28;20203;-86
2024/02/08 01:28:41;;;;;;;18.98;13.05;;;5.40;1.00;;;;;;4990882;28;20479;-86
2024/02/08 01:31:07;;;;;;;20.17;11.95;;;5.40;1.00;;;;;;4980232;28;20185;-86
2024/02/08 01:33:36;;;;;;;18.40;12.73;;;5.50;1.00;;;;;;4989144;28;20609;-86
2024/02/08 01:36:02;;;;;;;17.10;12.75;;;5.50;1.00;;;;;;4987515;28;20188;-86
2024/02/08 01:38:27;;;;;;;19.63;13.50;;;5.50;1.00;;;;;;4991380;28;20622;-86
2024/02/08 01:40:55;;;;;;;23.30;14.30;;;5.50;1.00;;;;;;4989572;28;20255;-86
2024/02/08 01:43:20;;;;;;;21.67;14.95;;;5.50;1.00;;;;;;4990241;28;20296;-86
2024/02/08 01:45:46;;;;;;;24.10;14.90;;;5.60;1.00;;;;;;4985279;28;20276;-87
2024/02/08 01:48:15;;;;;;;21.30;14.17;;;5.70;1.00;;;;;;4990499;28;20192;-85
2024/02/08 01:50:42;;;;;;;22.42;14.40;;;5.70;1.00;;;;;;4990490;28;20184;-87
2024/02/08 01:53:15;;;;;;;23.20;15.52;;;5.70;1.00;;;;;;4982450;28;20796;-87
2024/02/08 01:55:49;;;;;;;24.10;16.90;;;5.70;1.00;;;;;;4989967;28;20184;-86
2024/02/08 01:58:15;;;;;;;27.75;16.83;;;5.70;1.00;;;;;;4991492;28;20293;-86
2024/02/08 02:00:48;;;;;;;26.55;17.85;;;5.70;1.00;;;;;;4989603;28;20242;-86
2024/02/08 02:03:15;;;;;;;25.73;17.70;;;5.70;1.00;;;;;;4991466;28;20211;-86
2024/02/08 02:05:42;;;;;;;25.85;17.13;;;5.80;1.00;;;;;;4992985;28;20192;-86
2024/02/08 02:08:10;;;;;;;24.08;17.10;;;5.80;1.00;;;;;;4993564;28;20638;-86
2024/02/08 02:10:37;;;;;;;28.48;18.00;;;5.80;1.00;;;;;;4994893;28;20595;-86
2024/02/08 02:13:08;;;;;;;26.25;18.50;;;5.80;1.00;;;;;;4994905;28;20266;-87
2024/02/08 02:15:35;;;;;;;26.95;17.50;;;5.90;1.00;;;;;;4994444;28;20188;-87
2024/02/08 02:18:03;;;;;;;25.17;16.35;;;5.80;1.00;;;;;;4984666;28;20277;-86
2024/02/08 02:20:29;;;;;;;28.63;18.35;;;5.90;1.00;;;;;;4992192;28;20177;-86
2024/02/08 02:23:03;;;;;;;31.80;19.35;;;5.90;1.00;;;;;;4994860;28;20199;-86
2024/02/08 02:25:32;;;;;;;32.15;19.65;;;5.90;1.00;;;;;;4994634;28;20219;-86
2024/02/08 02:28:00;;;;;;;29.70;20.88;;;5.90;1.00;;;;;;4993225;28;20654;-87
2024/02/08 02:30:27;;;;;;;33.92;20.08;;;5.90;1.00;;;;;;4991998;28;20192;-86
2024/02/08 02:32:55;;;;;;;31.42;20.15;;;5.90;1.00;;;;;;4993262;28;20713;-87
2024/02/08 02:35:22;;;;;;;35.60;20.20;;;5.90;1.00;;;;;;4994186;28;20176;-87
2024/02/08 02:37:51;;;;;;;30.38;20.45;;;5.90;1.00;;;;;;4993650;28;20184;-86
2024/02/08 02:40:24;;;;;;;31.25;19.52;;;6.00;1.00;;;;;;4982942;28;20220;-85
2024/02/08 02:42:54;;;;;;;31.52;19.60;;;6.00;1.00;;;;;;4994000;28;20212;-86
2024/02/08 02:45:28;;;;;;;31.08;19.92;;;6.00;1.00;;;;;;4992333;28;20260;-86
2024/02/08 02:47:55;;;;;;;37.33;20.70;;;6.00;1.00;;;;;;4992347;28;20186;-86
2024/02/08 02:50:22;;;;;;;33.70;20.25;;;6.00;1.00;;;;;;4993684;28;20772;-86
2024/02/08 02:52:50;;;;;;;36.42;20.52;;;6.00;1.00;;;;;;4992197;28;20290;-87
2024/02/08 02:55:16;;;;;;;40.55;23.20;;;6.00;1.00;;;;;;4991285;28;20191;-86
2024/02/08 02:57:42;;;;;;;30.15;19.45;;;6.00;1.00;;;;;;4993188;28;20187;-86
2024/02/08 03:00:21;;;;;;;33.85;20.98;;;5.90;1.00;;;;;;4986242;28;20216;-86
2024/02/08 03:02:57;;;;;;;34.78;23.42;;;5.90;1.00;;;;;;4992118;28;20211;-86
2024/02/08 03:05:23;;;;;;;36.78;22.45;;;5.80;1.00;;;;;;4993568;28;20180;-86
2024/02/08 03:07:52;;;;;;;42.85;22.80;;;5.80;1.00;;;;;;4993045;28;20698;-86
2024/02/08 03:10:21;;;;;;;37.05;22.73;;;5.70;1.00;;;;;;4993462;28;20196;-86
2024/02/08 03:12:51;;;;;;;48.00;25.25;;;5.70;1.00;;;;;;4993507;28;20282;-86
2024/02/08 03:15:18;;;;;;;43.97;26.25;;;5.60;1.00;;;;;;4986068;28;20188;-86
2024/02/08 03:17:45;;;;;;;39.33;23.58;;;5.50;1.00;;;;;;4994205;28;20180;-86
2024/02/08 03:20:16;;;;;;;43.58;23.65;;;5.50;1.00;;;;;;4995488;28;20176;-86
2024/02/08 03:22:43;;;;;;;41.13;25.58;;;5.50;1.00;;;;;;4994416;28;20203;-86
2024/02/08 03:25:14;;;;;;;47.40;25.02;;;5.60;1.00;;;;;;4994627;28;20195;-86
2024/02/08 03:27:42;;;;;;;39.42;23.02;;;5.60;1.00;;;;;;4993405;28;20211;-86
2024/02/08 03:30:19;;;;;;;47.90;25.35;;;5.60;1.00;;;;;;4991768;28;20192;-86
2024/02/08 03:32:46;;;;;;;44.40;26.60;;;5.50;1.00;;;;;;4985571;28;20239;-86
2024/02/08 03:35:12;;;;;;;48.58;26.55;;;5.50;1.00;;;;;;4993316;28;20176;-86
2024/02/08 03:37:38;;;;;;;47.17;27.00;;;5.50;1.00;;;;;;4991341;28;20230;-87
2024/02/08 03:40:04;;;;;;;54.80;27.90;;;5.60;1.00;;;;;;4993588;28;20183;-85
2024/02/08 03:42:30;;;;;;;49.28;28.60;;;5.60;1.00;;;;;;4990712;28;20466;-86
2024/02/08 03:44:55;;;;;;;48.30;26.23;;;5.60;1.00;;;;;;4974260;28;20236;-86
2024/02/08 03:47:21;;;;;;;55.70;28.93;;;5.50;1.00;;;;;;5002667;28;20219;-86
2024/02/08 03:49:51;;;;;;;52.67;29.03;;;5.60;1.00;;;;;;4987663;28;20192;-86
2024/02/08 03:52:18;;;;;;;55.55;29.55;;;5.50;1.00;;;;;;4992669;28;20219;-87
2024/02/08 03:54:45;;;;;;;55.85;27.55;;;5.60;1.00;;;;;;4985348;28;20322;-86
2024/02/08 03:57:12;;;;;;;55.90;28.23;;;5.60;1.00;;;;;;4992875;28;20183;-86
2024/02/08 03:59:40;;;;;;;59.17;29.55;;;5.50;1.00;;;;;;4992856;28;20188;-85
2024/02/08 04:02:09;;;;;;;58.95;31.23;;;5.50;1.00;;;;;;4991404;28;20188;-86
2024/02/08 04:04:59;;;;;;;61.25;29.55;;;5.60;1.00;;;;;;5003136;23;20236;-84
2024/02/08 04:07:45;;;;;;;52.80;30.67;;;5.70;1.00;;;;;;4975260;28;20173;-84
2024/02/08 04:53:30;;;;;;;54.03;27.85;;;5.70;1.00;;;;;;4968105;28;20227;-86
2024/02/08 04:54:43;;;;;;;61.10;30.70;;;5.60;1.00;;;;;;4978121;28;20235;-85
2024/02/08 04:57:09;;;;;;;53.57;27.20;;;5.50;1.00;;;;;;4992613;28;20185;-85
2024/02/08 04:59:44;;;;;;;54.33;28.85;;;5.50;1.00;;;;;;4990632;28;20840;-85
2024/02/08 05:02:13;;;;;;;63.80;30.50;;;5.50;1.00;;;;;;4977354;28;20721;-85
2024/02/08 05:04:39;;;;;;;56.75;30.17;;;5.60;1.00;;;;;;4977472;28;20224;-85
2024/02/08 05:07:08;;;;;;;42.13;24.23;;;5.50;1.00;;;;;;4972429;28;20185;-84
2024/02/08 05:09:34;;;;;;;40.28;23.05;;;5.50;1.00;;;;;;4974248;28;20184;-84
2024/02/08 05:12:00;;;;;;;37.55;22.25;;;5.50;1.00;;;;;;4975596;28;20566;-84
2024/02/08 05:14:29;;;;;;;57.43;27.13;;;5.50;1.00;;;;;;4975675;28;20235;-84
2024/02/08 05:16:54;;;;;;;53.85;27.77;;;5.50;1.00;;;;;;4987967;28;20810;-85
2024/02/08 05:19:28;;;;;;;51.17;24.13;;;5.40;1.00;;;;;;4979400;28;20180;-84
2024/02/08 05:21:58;;;;;;;40.15;21.70;;;5.40;1.00;;;;;;4970591;28;20195;-84
2024/02/08 05:24:26;;;;;;;53.17;25.52;;;5.40;1.00;;;;;;4973845;28;20648;-86
2024/02/08 05:26:53;;;;;;;48.22;24.00;;;5.40;1.00;;;;;;4974616;28;20272;-85
2024/02/08 05:29:21;;;;;;;48.03;24.05;;;5.30;1.00;;;;;;4975834;28;20189;-85
2024/02/08 05:31:49;;;;;;;45.50;21.33;;;5.40;1.00;;;;;;4973922;28;20185;-85
2024/02/08 05:34:15;;;;;;;51.30;26.02;;;5.30;1.00;;;;;;4969881;28;20212;-84
2024/02/08 05:36:42;;;;;;;47.33;25.30;;;5.30;1.00;;;;;;4970948;28;20268;-84
2024/02/08 05:39:08;;;;;;;44.63;24.08;;;5.30;1.00;;;;;;4977564;28;20199;-84
2024/02/08 05:41:34;;;;;;;50.60;27.07;;;5.20;1.00;;;;;;4975895;28;20733;-84
2024/02/08 05:44:05;;;;;;;51.80;25.38;;;5.20;1.00;;;;;;4972123;28;20475;-83
2024/02/08 05:46:37;;;;;;;52.33;26.98;;;5.20;1.00;;;;;;4972906;28;20189;-85
2024/02/08 05:49:04;;;;;;;47.70;25.02;;;5.20;1.00;;;;;;4975478;28;20189;-85
2024/02/08 05:51:33;;;;;;;48.45;25.98;;;5.20;1.00;;;;;;4976537;28;20651;-86
2024/02/08 05:54:05;;;;;;;50.20;24.50;;;5.20;1.00;;;;;;4970970;28;20212;-85
2024/02/08 05:56:39;;;;;;;51.92;24.35;;;5.20;1.00;;;;;;4982398;28;20181;-84
2024/02/08 05:59:08;;;;;;;46.80;21.58;;;5.20;1.00;;;;;;4991875;28;20196;-85
2024/02/08 06:01:44;;;;;;;44.90;21.23;;;5.20;1.00;;;;;;4974748;28;20271;-84
2024/02/08 06:04:24;;;;;;;54.30;22.20;;;5.20;1.00;;;;;;4973782;28;20224;-85
2024/02/08 06:06:58;;;;;;;44.00;22.52;;;5.30;1.00;;;;;;4977611;28;20315;-85
2024/02/08 06:09:47;;;;;;;57.65;26.60;;;5.30;1.00;;;;;;4979616;28;20184;-84
2024/02/08 06:12:23;;;;;;;53.28;26.70;;;5.30;1.00;;;;;;4975553;28;20271;-84
2024/02/08 06:14:58;;;;;;;59.38;26.52;;;5.30;1.00;;;;;;4973546;28;20292;-84
2024/02/08 06:17:33;;;;;;;58.55;28.30;;;5.30;1.00;;;;;;4975379;28;20184;-87
2024/02/08 06:20:08;;;;;;;49.90;27.80;;;5.40;1.00;;;;;;4981004;28;20697;-85
2024/02/08 06:22:39;;;;;;;58.65;27.88;;;5.30;1.00;;;;;;4978093;28;20188;-86
2024/02/08 06:25:08;;;;;;;57.60;26.75;;;5.30;1.00;;;;;;4982801;28;20200;-86
2024/02/08 06:27:37;;;;;;;59.13;27.90;;;5.30;1.00;;;;;;4999497;28;20188;-85
2024/02/08 06:30:09;;;;;;;60.38;27.35;;;5.20;1.00;;;;;;4991151;28;20216;-85
2024/02/08 06:32:43;;;;;;;53.58;25.25;;;5.30;1.00;;;;;;4989568;28;20662;-86
2024/02/08 06:35:13;;;;;;;48.75;24.63;;;5.30;1.00;;;;;;4988212;28;20292;-86
2024/02/08 06:37:53;;;;;;;56.15;25.10;;;5.30;1.00;;;;;;4982891;28;20239;-86
2024/02/08 06:40:24;;;;;;;49.67;23.50;;;5.20;1.00;;;;;;4987265;28;20178;-86
2024/02/08 06:45:48;;;;;;;43.38;19.92;;;5.20;1.00;;;;;;4975920;28;20204;-86
2024/02/08 06:48:35;;;;;;;45.60;22.77;;;5.20;1.00;;;;;;4988399;28;20662;-87
2024/02/08 07:37:17;;;;;;;39.72;23.67;;;5.20;1.00;;;;;;4974419;28;20654;-86
2024/02/08 07:38:07;;;;;;;37.00;19.17;;;5.30;1.00;;;;;;4975741;28;20216;-85
2024/02/08 07:40:35;;;;;;;43.75;20.35;;;5.30;1.00;;;;;;4973247;28;20193;-85
2024/02/08 07:43:19;;;;;;;40.05;22.70;;;5.30;1.00;;;;;;4974808;28;20243;-85
2024/02/08 07:45:54;;;;;;;43.15;21.42;;;5.40;1.00;;;;;;4976987;28;20674;-84
2024/02/08 07:48:37;;;;;;;38.50;19.92;;;5.50;1.00;;;;;;4971065;28;20275;-85
2024/02/08 07:51:04;;;;;;;34.85;17.95;;;5.50;1.00;;;;;;4997537;28;20224;-86
2024/02/08 07:53:35;;;;;;;40.38;20.88;;;5.50;1.00;;;;;;4984733;28;20217;-86
2024/02/08 07:59:06;;;;;;;35.15;20.92;;;5.50;1.00;;;;;;4989798;28;20185;-86
2024/02/08 08:01:38;;;;;;;37.78;21.92;;;5.50;1.00;;;;;;4988012;28;20199;-86
2024/02/08 08:04:12;;;;;;;47.00;23.92;;;5.60;1.00;;;;;;4979773;28;20216;-86
2024/02/08 08:06:46;;;;;;;53.10;25.70;;;5.60;1.00;;;;;;4984678;28;20239;-86
2024/02/08 08:09:21;;;;;;;44.53;25.45;;;5.60;1.00;;;;;;4995519;28;20275;-86
2024/02/08 08:54:29;;;;;;;26.63;15.25;;;5.10;52.50;;;;;;5065775;28;20598;-84
2024/02/08 09:01:22;;;;;;;31.48;18.50;;;5.30;50.80;;;;;;5061169;28;20604;-84
2024/02/08 09:03:55;;;;;;;29.67;16.83;;;5.30;40.80;;;;;;5053053;28;20190;-85
2024/02/08 09:06:28;;;;;;;29.90;18.83;;;5.40;35.60;;;;;;5051478;28;20257;-84
2024/02/08 09:12:13;;;;;;;25.88;15.10;;;5.60;14.20;;;;;;5009539;28;20322;-84
2024/02/08 09:14:48;;;;;;;28.90;17.13;;;5.60;5.70;;;;;;5007761;28;20274;-83
2024/02/08 09:27:34;;;;;;;33.53;18.90;;;5.60;1.00;;;;;;5052116;27;1977400;-84
2024/02/08 09:30:08;;;;;;;28.70;17.50;;;5.70;11.20;;;;;;5090553;28;20184;-84
2024/02/08 09:32:46;;;;;;;32.03;20.05;;;5.70;8.90;;;;;;5087948;28;20206;-84
2024/02/08 09:35:11;;;;;;;33.30;20.05;;;5.70;11.30;;;;;;5088634;28;20263;-84
2024/02/08 09:37:38;;;;;;;35.97;22.37;;;5.80;16.60;;;;;;5088684;28;20311;-84
2024/02/08 09:40:18;;;;;;;34.85;18.52;;;5.90;7.60;;;;;;5089612;28;20181;-84
2024/02/08 09:42:54;;;;;;;29.67;19.52;;;6.00;4.40;;;;;;5091565;28;20199;-84
2024/02/08 09:48:06;;;;;;;32.63;20.60;;;6.10;1.00;;;;;;5089217;28;20203;-84
2024/02/08 09:50:37;;;;;;;33.13;21.08;;;6.00;1.00;;;;;;5087082;28;20184;-84
2024/02/08 09:53:19;;;;;;;35.97;19.73;;;6.00;1.00;;;;;;5088102;28;20172;-84
2024/02/08 09:55:55;;;;;;;43.95;25.98;;;6.00;1.00;;;;;;5086203;28;20727;-84
2024/02/08 09:58:35;;;;;;;48.55;23.77;;;5.90;1.00;;;;;;5084382;28;20208;-84
2024/02/08 10:01:01;;;;;;;42.47;20.25;;;5.90;19.90;;;;;;5082668;28;20184;-84
2024/02/08 10:03:36;;;;;;;46.20;23.67;;;6.00;22.70;;;;;;5084856;28;20185;-85
2024/02/08 10:06:12;;;;;;;38.92;20.38;;;6.00;17.80;;;;;;5086161;28;20453;-85
2024/02/08 10:09:08;;;;;;;43.55;21.52;;;6.20;20.00;;;;;;5085768;28;20199;-85
2024/02/08 10:11:43;;;;;;;47.72;21.73;;;6.20;15.70;;;;;;5082764;28;20184;-85
2024/02/08 10:14:55;;;;;;;55.25;20.23;;;6.20;18.50;;;;;;5080617;28;20203;-85
2024/02/08 10:17:00;;;;;;;45.78;20.20;;;6.20;25.30;;;;;;5077402;28;20184;-85
2024/02/08 10:22:02;;;;;;;44.20;20.03;;;6.10;16.60;;;;;;5086066;28;20603;-85
2024/02/08 10:27:21;;;;;;;34.05;15.82;;;6.10;20.80;;;;;;5052422;28;20269;-85
2024/02/08 10:29:58;;;;;;;41.30;18.17;;;6.10;21.00;;;;;;5084086;28;20226;-85
2024/02/08 10:32:27;;;;;;;37.30;17.15;;;6.10;22.50;;;;;;5084468;28;20184;-85
2024/02/08 10:35:15;;;;;;;47.13;20.55;;;6.20;30.90;;;;;;5082564;28;20227;-85
2024/02/08 10:37:53;;;;;;;38.95;16.58;;;6.10;26.40;;;;;;5077829;28;20204;-85
2024/02/08 10:40:28;;;;;;;43.30;20.58;;;6.20;28.40;;;;;;5071894;28;20176;-85
2024/02/08 10:42:58;;;;;;;35.35;16.92;;;6.10;25.80;;;;;;5070479;28;20172;-85
2024/02/08 10:45:24;;;;;;;42.42;18.30;;;6.10;32.10;;;;;;5070792;28;20185;-86
2024/02/08 10:47:55;;;;;;;53.47;22.23;;;6.00;34.00;;;;;;5063783;28;20201;-84
2024/02/08 10:50:24;;;;;;;41.10;17.25;;;6.10;43.30;;;;;;5072918;28;20216;-85
2024/02/08 10:52:51;;;;;;;54.78;20.75;;;6.10;46.60;;;;;;5072773;28;20273;-84
2024/02/08 10:55:30;;;;;;;45.53;19.70;;;6.10;49.10;;;;;;5068140;28;20192;-84
2024/02/08 11:03:52;;;;;;;40.23;19.13;;;6.10;53.80;;;;;;5069991;28;20181;-86
2024/02/08 11:08:33;;;;;;;51.30;20.47;;;6.20;53.00;;;;;;5070853;28;20618;-84
2024/02/08 11:11:09;;;;;;;44.70;17.67;;;6.20;55.20;;;;;;5068285;28;20963;-85
2024/02/08 11:13:41;;;;;;;53.20;21.08;;;6.20;52.60;;;;;;5068625;28;20191;-86
2024/02/08 11:16:27;;;;;;;44.25;19.30;;;6.20;53.00;;;;;;5070069;28;20181;-85
2024/02/08 11:18:54;;;;;;;40.55;19.30;;;6.20;52.40;;;;;;5067972;28;20203;-85
2024/02/08 11:21:43;;;;;;;45.80;17.15;;;6.20;59.80;;;;;;5065820;28;20193;-85
2024/02/08 11:24:27;;;;;;;43.65;19.70;;;6.20;52.30;;;;;;5067860;28;20212;-84
2024/02/08 11:27:01;;;;;;;40.67;17.17;;;6.20;53.40;;;;;;5063575;28;20213;-85
2024/02/08 11:29:27;;;;;;;43.55;19.55;;;6.20;53.30;;;;;;5069019;28;20505;-84
2024/02/08 11:31:55;;;;;;;38.28;16.23;;;6.30;52.20;;;;;;5074395;28;20200;-86
2024/02/08 11:34:24;;;;;;;32.47;15.80;;;6.30;49.00;;;;;;5071124;28;20595;-84
2024/02/08 11:36:58;;;;;;;50.17;19.73;;;6.30;41.70;;;;;;5071734;28;20189;-85
2024/02/08 11:39:28;;;;;;;34.58;15.25;;;6.40;52.80;;;;;;5070741;28;20937;-85
2024/02/08 11:42:05;;;;;;;35.65;15.25;;;6.40;49.20;;;;;;5070682;28;20595;-85
2024/02/08 11:44:36;;;;;;;52.63;22.70;;;6.50;42.20;;;;;;5062519;28;20180;-85
2024/02/08 11:47:17;;;;;;;49.60;21.67;;;6.50;34.20;;;;;;5064428;28;20451;-85
2024/02/08 11:50:04;;;;;;;46.40;18.60;;;6.60;30.30;;;;;;5074750;28;20265;-86
2024/02/08 11:52:31;;;;;;;40.50;18.43;;;6.70;34.00;;;;;;5061618;28;20411;-86
2024/02/08 11:55:20;;;;;;;42.03;19.77;;;6.90;41.20;;;;;;5071617;28;20426;-84
2024/02/08 11:57:47;;;;;;;44.80;18.53;;;7.00;40.40;;;;;;5069226;28;20534;-85
2024/02/08 12:00:16;;;;;;;43.80;20.10;;;7.10;15.30;;;;;;5068380;28;20492;-86
2024/02/08 12:02:47;;;;;;;39.67;18.77;;;7.30;24.90;;;;;;5070623;28;20783;-85
2024/02/08 12:05:19;;;;;;;35.87;17.80;;;7.40;15.60;;;;;;5067863;28;20903;-85
2024/02/08 12:07:45;;;;;;;34.17;17.40;;;7.30;1.00;;;;;;5068400;28;20489;-86
2024/02/08 12:10:17;;;;;;;33.93;15.87;;;7.30;1.00;;;;;;5065610;28;20459;-86
2024/02/08 12:12:45;;;;;;;33.87;16.47;;;7.30;1.00;;;;;;5067637;28;20427;-86
2024/02/08 12:15:13;;;;;;;37.90;17.93;;;7.20;1.00;;;;;;5056100;28;20476;-86
2024/02/08 12:17:48;;;;;;;33.43;15.40;;;7.10;1.00;;;;;;5058678;28;21015;-86
2024/02/08 12:20:16;;;;;;;38.07;16.40;;;7.10;1.00;;;;;;5065618;28;20462;-85
2024/02/08 12:22:41;;;;;;;39.83;18.13;;;7.00;1.00;;;;;;5067071;28;20431;-86
2024/02/08 12:25:15;;;;;;;33.13;16.03;;;7.10;3.90;;;;;;5067584;28;20530;-85
2024/02/08 12:27:48;;;;;;;33.47;19.50;;;7.00;1.00;;;;;;5069562;28;20220;-85
2024/02/08 12:30:21;;;;;;;33.33;17.33;;;6.90;1.00;;;;;;5069203;28;20185;-85
2024/02/08 12:32:50;;;;;;;38.63;17.97;;;6.90;6.20;;;;;;5072158;28;20438;-83
2024/02/08 12:35:20;;;;;;;38.03;19.47;;;7.00;9.60;;;;;;5065891;28;20477;-84
2024/02/08 12:37:47;;;;;;;42.17;20.27;;;6.90;6.50;;;;;;5068827;28;20455;-83
2024/02/08 12:40:15;;;;;;;36.42;18.60;;;6.90;8.40;;;;;;5075271;28;20911;-84
2024/02/08 12:42:42;;;;;;;36.47;19.07;;;7.00;10.30;;;;;;5072657;28;20276;-83
2024/02/08 12:45:11;;;;;;;37.77;17.53;;;6.90;5.30;;;;;;5070789;28;20796;-84
2024/02/08 12:47:39;;;;;;;33.05;16.95;;;7.00;14.20;;;;;;5068247;28;20563;-84
2024/02/08 12:50:09;;;;;;;36.63;17.90;;;7.10;15.00;;;;;;5071849;28;20551;-83
2024/02/08 12:52:41;;;;;;;37.63;17.53;;;7.20;11.00;;;;;;5072264;28;20833;-84
2024/02/08 12:55:13;;;;;;;38.20;16.73;;;7.20;13.50;;;;;;5070730;28;20943;-85
2024/02/08 12:57:40;;;;;;;34.43;17.43;;;7.30;7.20;;;;;;5068037;28;20478;-84
2024/02/08 13:00:08;;;;;;;38.73;20.87;;;7.40;14.90;;;;;;5065597;28;21146;-85
2024/02/08 13:02:34;;;;;;;36.00;18.50;;;7.40;3.50;;;;;;5071791;28;20437;-83
2024/02/08 13:05:03;;;;;;;37.73;18.37;;;7.20;1.00;;;;;;5075347;28;20517;-85
2024/02/08 13:07:29;;;;;;;30.50;15.13;;;7.30;1.00;;;;;;5071976;28;20208;-82
2024/02/08 13:10:13;;;;;;;38.40;20.07;;;7.30;4.50;;;;;;5071396;28;20439;-84
2024/02/08 13:12:39;;;;;;;41.43;19.83;;;7.20;1.00;;;;;;5077598;28;20442;-84
2024/02/08 13:15:10;;;;;;;37.53;19.33;;;7.20;4.90;;;;;;5070959;28;20432;-83
2024/02/08 13:17:36;;;;;;;47.50;18.48;;;7.30;14.00;;;;;;5074960;28;20212;-83
2024/02/08 13:20:23;;;;;;;39.20;18.50;;;7.40;22.00;;;;;;5075306;28;20230;-84
2024/02/08 13:22:52;;;;;;;34.90;17.40;;;7.40;7.20;;;;;;5071515;28;20177;-85
2024/02/08 13:25:18;;;;;;;42.83;18.73;;;7.40;4.40;;;;;;5067301;28;20454;-84
2024/02/08 13:27:44;;;;;;;42.80;22.00;;;7.50;10.40;;;;;;5069907;28;20471;-84
2024/02/08 13:30:17;;;;;;;39.95;18.90;;;7.40;3.50;;;;;;5069710;28;20489;-86
2024/02/08 13:32:51;;;;;;;36.95;19.58;;;7.50;7.30;;;;;;5065300;28;20188;-84
2024/02/08 13:35:18;;;;;;;38.78;20.35;;;7.50;8.40;;;;;;5071921;28;20267;-84
2024/02/08 13:37:54;;;;;;;36.73;19.57;;;7.50;2.80;;;;;;5071012;28;20197;-85
2024/02/08 13:40:22;;;;;;;41.50;20.20;;;7.50;4.40;;;;;;5071224;28;20493;-84
2024/02/08 13:42:49;;;;;;;43.40;19.40;;;7.50;11.10;;;;;;5072734;28;20470;-84
2024/02/08 13:45:15;;;;;;;38.30;19.10;;;7.50;16.20;;;;;;5059703;28;20428;-84
2024/02/08 13:47:51;;;;;;;45.73;21.20;;;7.50;19.60;;;;;;5070406;28;20497;-85
2024/02/08 13:50:17;;;;;;;47.63;22.30;;;7.60;27.70;;;;;;5064643;28;20429;-84
2024/02/08 13:52:44;;;;;;;39.17;19.43;;;7.60;30.50;;;;;;5066971;28;20419;-84
2024/02/08 13:55:17;;;;;;;43.77;21.40;;;7.70;31.80;;;;;;5069533;28;20509;-84
2024/02/08 13:57:51;;;;;;;42.50;20.40;;;7.80;28.70;;;;;;5067949;28;20453;-85
2024/02/08 14:00:20;;;;;;;46.40;20.50;;;7.80;29.40;;;;;;5064733;28;20429;-84
2024/02/08 14:02:49;;;;;;;39.80;19.17;;;7.90;29.80;;;;;;5066384;28;20433;-84
2024/02/08 14:05:19;;;;;;;42.40;21.17;;;8.00;24.60;;;;;;5066456;28;20518;-83
2024/02/08 14:07:48;;;;;;;42.90;19.63;;;8.00;16.40;;;;;;5061456;28;20564;-81
2024/02/08 14:10:27;;;;;;;41.47;20.63;;;7.90;18.70;;;;;;5062984;28;20453;-84
2024/02/08 14:12:59;;;;;;;47.27;20.27;;;7.90;20.00;;;;;;5066687;28;20435;-84
2024/02/08 14:15:29;;;;;;;43.67;19.10;;;7.90;18.70;;;;;;5067349;28;20955;-84
2024/02/08 14:17:57;;;;;;;43.03;21.93;;;7.90;24.60;;;;;;5068947;28;20527;-84
2024/02/08 14:20:35;;;;;;;41.07;21.47;;;7.90;28.10;;;;;;5072998;28;20443;-84
2024/02/08 14:23:00;;;;;;;37.60;17.93;;;7.80;30.10;;;;;;5070370;28;20487;-84
2024/02/08 14:25:37;;;;;;;43.83;20.00;;;7.80;31.90;;;;;;5065432;28;20478;-85
2024/02/08 14:28:09;;;;;;;46.70;20.30;;;7.80;31.30;;;;;;5073440;28;20458;-84
2024/02/08 14:30:36;;;;;;;49.00;22.63;;;7.80;30.30;;;;;;5073139;28;20437;-85
2024/02/08 14:33:01;;;;;;;50.80;25.00;;;7.70;34.00;;;;;;5071188;28;20493;-82
2024/02/08 14:35:31;;;;;;;43.10;22.97;;;7.70;38.00;;;;;;5073354;28;20419;-83
2024/02/08 14:37:58;;;;;;;48.83;23.10;;;7.70;47.10;;;;;;5075180;28;20662;-85
2024/02/08 14:40:26;;;;;;;54.03;24.70;;;7.70;45.40;;;;;;5075294;28;20411;-85
2024/02/08 14:42:56;;;;;;;54.67;25.50;;;7.80;48.70;;;;;;5074003;28;20461;-85
2024/02/08 14:45:24;;;;;;;47.43;23.07;;;7.70;50.20;;;;;;5074092;28;20932;-85
2024/02/08 14:47:51;;;;;;;46.87;23.00;;;7.80;55.70;;;;;;5073032;28;20539;-84
2024/02/08 14:53:04;;;;;;;45.70;20.90;;;8.00;60.60;;;;;;5063871;28;20816;-85
2024/02/08 14:55:35;;;;;;;58.10;25.80;;;8.00;51.00;;;;;;5075057;28;20411;-85
2024/02/08 14:58:04;;;;;;;47.53;22.47;;;7.90;45.70;;;;;;5073534;28;20447;-85
2024/02/08 15:03:07;;;;;;;54.87;25.40;;;8.00;52.90;;;;;;5073688;28;20514;-86
2024/02/08 15:05:48;;;;;;;47.83;22.63;;;8.10;58.80;;;;;;5074671;28;20176;-84
2024/02/08 15:10:59;;;;;;;50.63;25.00;;;8.10;49.50;;;;;;5070177;28;20422;-85
2024/02/08 15:13:25;;;;;;;67.03;30.30;;;8.10;51.70;;;;;;5073143;28;20422;-84
2024/02/08 15:15:54;;;;;;;58.27;26.40;;;8.10;57.30;;;;;;5074921;28;20423;-84
2024/02/08 15:18:30;;;;;;;73.50;34.23;;;8.20;61.70;;;;;;5068703;28;20467;-84
2024/02/08 15:21:04;;;;;;;51.53;25.13;;;8.30;64.30;;;;;;5072574;28;20438;-85
2024/02/08 15:23:47;;;;;;;59.97;30.40;;;8.30;60.60;;;;;;5069010;28;20438;-85
2024/02/08 15:26:13;;;;;;;65.80;32.80;;;8.40;74.80;;;;;;5066929;28;20483;-85
2024/02/08 15:28:42;;;;;;;59.73;31.13;;;8.50;78.00;;;;;;5068954;28;20451;-84
2024/02/08 15:34:07;;;;;;;33.67;18.20;;;8.70;93.20;;;;;;5069426;28;20446;-85
2024/02/08 15:36:46;;;;;;;28.63;14.90;;;8.80;96.00;;;;;;5070524;28;20467;-84
2024/02/08 15:42:17;;;;;;;23.87;12.63;;;9.20;99.90;;;;;;5049902;28;20919;-85
2024/02/08 15:44:47;;;;;;;22.57;12.23;;;9.40;99.90;;;;;;5068028;28;20818;-85
2024/02/08 15:47:15;;;;;;;26.83;12.13;;;9.60;99.90;;;;;;5070046;28;20500;-85
2024/02/08 15:49:44;;;;;;;27.30;11.23;;;9.70;99.90;;;;;;5070483;28;20439;-84
2024/02/08 15:52:22;;;;;;;18.80;10.47;;;9.90;99.90;;;;;;5068558;28;20576;-85
2024/02/08 15:54:55;;;;;;;20.97;10.63;;;10.10;99.90;;;;;;5067148;28;20492;-85
2024/02/08 15:57:32;;;;;;;26.60;11.20;;;10.20;99.90;;;;;;5069242;28;20443;-84
2024/02/08 16:00:00;;;;;;;18.37;10.43;;;10.30;99.90;;;;;;5066567;28;20431;-85
2024/02/08 16:02:26;;;;;;;25.53;11.33;;;10.40;99.90;;;;;;5070522;28;20431;-82